Time;durP1;ratioP1;P1;durP2;ratioP2;P2;SDS_P1;SDS_P2;PMS_P1;PMS_P2;Temp;Humidity;BMP_temperature;BMP_pressure;BME280_temperature;BME280_humidity;BME280_pressure;Samples;Min_cycle;Max_cycle;Signal;HPM_P1;HPM_P2
2021/07/09 00:01:18;;;;;;;13.02;10.95;;;19.40;85.60;;;;;;5097731;28;20492;-82
2021/07/09 00:03:44;;;;;;;15.40;10.88;;;19.40;86.20;;;;;;5079347;28;20036;-82
2021/07/09 00:06:09;;;;;;;17.48;12.00;;;19.30;85.80;;;;;;5097240;28;20025;-82
2021/07/09 00:08:35;;;;;;;15.15;9.88;;;19.40;85.90;;;;;;5079194;28;20060;-82
2021/07/09 00:11:02;;;;;;;16.10;11.15;;;19.30;86.00;;;;;;5077906;28;20027;-82
2021/07/09 00:13:27;;;;;;;13.35;10.88;;;19.40;86.20;;;;;;5075596;28;20041;-82
2021/07/09 00:15:53;;;;;;;14.43;10.50;;;19.40;85.90;;;;;;5075586;28;20053;-82
2021/07/09 00:18:19;;;;;;;14.18;11.02;;;19.40;85.70;;;;;;5076777;28;20043;-82
2021/07/09 00:20:44;;;;;;;15.02;12.40;;;19.30;85.60;;;;;;5075398;28;20384;-82
2021/07/09 00:23:10;;;;;;;11.93;10.68;;;19.30;85.90;;;;;;5076551;28;20037;-82
2021/07/09 00:25:36;;;;;;;15.27;11.25;;;19.30;86.00;;;;;;5058638;28;20032;-82
2021/07/09 00:28:05;;;;;;;13.30;10.65;;;19.30;86.00;;;;;;5076699;28;20505;-82
2021/07/09 00:30:31;;;;;;;11.90;10.25;;;19.30;86.50;;;;;;5076493;28;20466;-82
2021/07/09 00:32:57;;;;;;;12.10;8.73;;;19.30;85.90;;;;;;5084017;28;20107;-82
2021/07/09 00:35:22;;;;;;;9.77;8.70;;;19.30;86.00;;;;;;5095593;28;20032;-83
2021/07/09 00:37:48;;;;;;;14.32;9.77;;;19.20;85.90;;;;;;5095057;28;20473;-82
2021/07/09 00:40:14;;;;;;;14.15;8.70;;;19.20;86.00;;;;;;5083249;28;20101;-82
2021/07/09 00:42:40;;;;;;;11.65;9.82;;;19.20;85.80;;;;;;5088684;28;20709;-82
2021/07/09 00:45:07;;;;;;;11.65;9.77;;;19.20;85.60;;;;;;5095420;28;20028;-82
2021/07/09 00:47:33;;;;;;;11.57;10.23;;;19.20;85.40;;;;;;5096485;28;20039;-82
2021/07/09 00:49:59;;;;;;;11.43;8.77;;;19.20;86.00;;;;;;5095230;28;20036;-82
2021/07/09 00:52:25;;;;;;;11.18;9.82;;;19.20;85.50;;;;;;5094917;28;20036;-82
2021/07/09 00:54:50;;;;;;;11.63;9.77;;;19.20;85.50;;;;;;5095173;28;20039;-82
2021/07/09 00:57:17;;;;;;;11.70;9.20;;;19.20;85.80;;;;;;5095003;28;20408;-82
2021/07/09 00:59:43;;;;;;;14.25;10.80;;;19.20;85.90;;;;;;5095034;28;20024;-82
2021/07/09 01:02:08;;;;;;;11.98;10.63;;;19.10;85.70;;;;;;5096376;28;20035;-82
2021/07/09 01:04:34;;;;;;;11.95;10.65;;;19.10;85.50;;;;;;5090665;28;20021;-82
2021/07/09 01:07:01;;;;;;;13.98;11.02;;;19.10;85.60;;;;;;5075933;28;20033;-82
2021/07/09 01:09:26;;;;;;;13.57;11.00;;;19.10;85.70;;;;;;5078013;28;20111;-82
2021/07/09 01:11:52;;;;;;;11.50;10.30;;;19.10;85.80;;;;;;5077172;28;20099;-82
2021/07/09 01:14:20;;;;;;;13.10;10.98;;;19.00;85.60;;;;;;5075741;28;20102;-82
2021/07/09 01:16:47;;;;;;;11.52;10.35;;;19.00;85.80;;;;;;5075524;28;20052;-82
2021/07/09 01:19:15;;;;;;;13.10;9.93;;;19.10;86.00;;;;;;5074385;28;20033;-82
2021/07/09 01:21:42;;;;;;;11.57;10.30;;;19.00;86.20;;;;;;5076046;28;20477;-82
2021/07/09 01:24:09;;;;;;;14.77;10.10;;;19.00;86.30;;;;;;5074517;28;20033;-82
2021/07/09 01:26:35;;;;;;;13.80;10.52;;;19.00;86.40;;;;;;5057568;28;20029;-82
2021/07/09 01:29:01;;;;;;;14.73;11.15;;;19.00;87.20;;;;;;5057441;28;20036;-82
2021/07/09 01:31:27;;;;;;;14.30;10.70;;;19.00;86.70;;;;;;5057610;28;20481;-82
2021/07/09 01:33:53;;;;;;;12.85;10.23;;;19.00;86.70;;;;;;5074148;28;20031;-82
2021/07/09 01:36:18;;;;;;;12.45;10.98;;;19.00;86.70;;;;;;5057437;28;20564;-82
2021/07/09 01:38:44;;;;;;;12.70;10.73;;;19.00;86.70;;;;;;5074312;28;20028;-82
2021/07/09 01:41:10;;;;;;;12.40;10.23;;;19.00;86.70;;;;;;5074253;28;20021;-82
2021/07/09 01:43:36;;;;;;;12.52;11.13;;;19.00;86.80;;;;;;5073951;28;20486;-82
2021/07/09 01:46:01;;;;;;;16.48;11.60;;;19.00;86.90;;;;;;5075211;28;20035;-82
2021/07/09 01:48:27;;;;;;;13.90;11.07;;;19.00;86.80;;;;;;5073873;28;20032;-82
2021/07/09 01:50:53;;;;;;;14.20;11.02;;;19.00;86.80;;;;;;5073846;28;20040;-82
2021/07/09 01:53:18;;;;;;;16.23;11.43;;;19.00;86.80;;;;;;5073823;28;20035;-82
2021/07/09 01:55:44;;;;;;;11.07;9.75;;;18.90;86.90;;;;;;5074978;28;20035;-82
2021/07/09 01:58:10;;;;;;;14.15;10.85;;;18.90;86.90;;;;;;5074985;28;20104;-82
2021/07/09 02:00:36;;;;;;;15.43;11.10;;;18.90;86.90;;;;;;5073604;28;20500;-82
2021/07/09 02:03:03;;;;;;;15.38;13.20;;;18.90;86.80;;;;;;5074729;28;20032;-82
2021/07/09 02:05:29;;;;;;;14.80;12.25;;;18.90;86.90;;;;;;5073389;28;20036;-82
2021/07/09 02:07:56;;;;;;;20.23;12.38;;;18.90;87.00;;;;;;5074713;28;20032;-82
2021/07/09 02:10:25;;;;;;;14.75;12.98;;;18.90;86.80;;;;;;5074741;28;20032;-82
2021/07/09 02:12:54;;;;;;;16.67;13.30;;;18.90;86.50;;;;;;5074732;28;20466;-82
2021/07/09 02:15:20;;;;;;;;;;;18.90;86.60;;;;;;5074814;28;20036;-82
2021/07/09 02:17:46;;;;;;;15.55;13.07;;;18.80;86.40;;;;;;5072989;28;19904;-82
2021/07/09 02:20:16;;;;;;;15.80;12.32;;;18.80;86.50;;;;;;5072772;28;20079;-82
2021/07/09 02:22:42;;;;;;;14.77;12.18;;;18.80;86.60;;;;;;5073129;28;20025;-82
2021/07/09 02:25:08;;;;;;;16.50;13.98;;;18.80;86.70;;;;;;5073212;28;20082;-82
2021/07/09 02:27:38;;;;;;;17.67;13.95;;;18.70;87.20;;;;;;5073020;28;20029;-82
2021/07/09 02:30:10;;;;;;;18.17;12.55;;;18.70;86.40;;;;;;5073122;28;20070;-82
2021/07/09 02:32:37;;;;;;;16.48;12.85;;;18.70;86.10;;;;;;5074117;28;20485;-82
2021/07/09 02:35:07;;;;;;;15.80;13.02;;;18.70;85.90;;;;;;5056377;28;20055;-82
2021/07/09 02:37:32;;;;;;;19.77;12.02;;;18.70;85.80;;;;;;5073918;28;20027;-83
2021/07/09 02:39:59;;;;;;;15.32;12.48;;;18.70;85.80;;;;;;5074058;28;20096;-82
2021/07/09 02:42:24;;;;;;;15.00;11.73;;;18.70;86.60;;;;;;5074059;28;20025;-82
2021/07/09 02:44:50;;;;;;;15.07;10.90;;;18.60;86.30;;;;;;5072664;28;20031;-82
2021/07/09 02:47:16;;;;;;;14.13;11.57;;;18.60;85.80;;;;;;5072786;28;20109;-82
2021/07/09 02:49:42;;;;;;;15.70;12.57;;;18.60;85.60;;;;;;5073774;28;20029;-82
2021/07/09 02:52:08;;;;;;;16.27;13.32;;;18.60;85.20;;;;;;5072734;28;20039;-82
2021/07/09 02:54:34;;;;;;;16.13;11.38;;;18.60;84.90;;;;;;5072801;28;20020;-83
2021/07/09 02:56:59;;;;;;;15.10;11.65;;;18.50;84.80;;;;;;5086232;28;20031;-82
2021/07/09 02:59:25;;;;;;;16.27;11.73;;;18.50;84.90;;;;;;5093073;28;20041;-82
2021/07/09 03:01:50;;;;;;;15.45;11.38;;;18.50;85.00;;;;;;5092763;28;20028;-82
2021/07/09 03:04:16;;;;;;;16.52;12.07;;;18.50;84.70;;;;;;5094181;28;20141;-82
2021/07/09 03:06:42;;;;;;;13.88;11.10;;;18.50;84.40;;;;;;5093842;28;20507;-82
2021/07/09 03:09:09;;;;;;;15.40;11.80;;;18.50;84.50;;;;;;5093889;28;20039;-82
2021/07/09 03:11:36;;;;;;;15.68;11.93;;;18.50;84.30;;;;;;5093892;28;20059;-82
2021/07/09 03:14:03;;;;;;;16.95;11.82;;;18.40;84.20;;;;;;5093760;28;20037;-82
2021/07/09 03:16:29;;;;;;;15.45;11.52;;;18.40;84.90;;;;;;5092204;28;20055;-82
2021/07/09 03:18:55;;;;;;;12.57;10.90;;;18.40;84.40;;;;;;5093687;28;20028;-82
2021/07/09 03:21:21;;;;;;;15.30;12.65;;;18.40;84.60;;;;;;5093867;28;20024;-82
2021/07/09 03:23:46;;;;;;;13.48;10.98;;;18.40;84.60;;;;;;5092455;28;20028;-82
2021/07/09 03:26:12;;;;;;;15.10;11.38;;;18.40;84.40;;;;;;5089183;28;20055;-82
2021/07/09 03:28:38;;;;;;;15.13;12.80;;;18.40;84.30;;;;;;5072141;28;20371;-83
2021/07/09 03:31:05;;;;;;;16.58;12.93;;;18.40;84.30;;;;;;5071917;28;20043;-82
2021/07/09 03:33:30;;;;;;;16.35;13.00;;;18.40;84.40;;;;;;5073257;28;20431;-82
2021/07/09 03:35:56;;;;;;;17.73;13.30;;;18.40;83.90;;;;;;5055463;28;20017;-82
2021/07/09 03:38:22;;;;;;;17.85;12.52;;;18.30;83.80;;;;;;5072001;28;20043;-82
2021/07/09 03:40:48;;;;;;;16.50;11.43;;;18.30;84.20;;;;;;5072193;28;20025;-82
2021/07/09 03:43:13;;;;;;;14.23;11.63;;;18.30;83.90;;;;;;5073045;28;20072;-82
2021/07/09 03:45:39;;;;;;;14.25;12.23;;;18.30;83.80;;;;;;5071888;28;20187;-82
2021/07/09 03:48:06;;;;;;;20.98;13.80;;;18.30;83.70;;;;;;5074465;28;20039;-82
2021/07/09 03:50:32;;;;;;;17.77;11.55;;;18.30;83.70;;;;;;5087172;28;20048;-82
2021/07/09 03:52:58;;;;;;;16.75;13.05;;;18.30;83.60;;;;;;5071448;28;20036;-83
2021/07/09 03:55:23;;;;;;;16.35;12.73;;;18.30;83.80;;;;;;5072052;28;20028;-82
2021/07/09 03:57:49;;;;;;;18.23;13.10;;;18.30;84.00;;;;;;5072778;28;20025;-82
2021/07/09 04:00:16;;;;;;;18.38;13.50;;;18.30;84.10;;;;;;5073137;28;20457;-82
2021/07/09 04:02:42;;;;;;;15.93;13.20;;;18.30;84.20;;;;;;5073024;28;20033;-82
2021/07/09 04:05:09;;;;;;;14.27;11.35;;;18.30;84.20;;;;;;5072916;28;20414;-82
2021/07/09 04:07:34;;;;;;;14.35;11.82;;;18.30;84.00;;;;;;5073261;28;20078;-82
2021/07/09 04:10:00;;;;;;;16.38;12.35;;;18.30;84.00;;;;;;5072945;28;20036;-82
2021/07/09 04:12:26;;;;;;;15.85;12.45;;;18.30;83.80;;;;;;5073360;28;20048;-82
2021/07/09 04:14:51;;;;;;;14.40;11.48;;;18.30;83.60;;;;;;5072842;28;20132;-82
2021/07/09 04:17:17;;;;;;;15.73;11.68;;;18.30;83.50;;;;;;5073145;28;20496;-82
2021/07/09 04:19:42;;;;;;;14.63;11.57;;;18.30;83.60;;;;;;5072923;28;20504;-82
2021/07/09 04:22:08;;;;;;;12.80;10.48;;;18.30;83.30;;;;;;5073515;28;20064;-83
2021/07/09 04:24:34;;;;;;;13.93;11.02;;;18.30;83.40;;;;;;5072892;28;20029;-82
2021/07/09 04:26:59;;;;;;;14.98;11.65;;;18.30;83.40;;;;;;5072760;28;20067;-82
2021/07/09 04:29:25;;;;;;;14.38;11.38;;;18.20;83.20;;;;;;5071070;28;20036;-82
2021/07/09 04:31:51;;;;;;;14.95;10.60;;;18.20;83.40;;;;;;5072748;28;20500;-82
2021/07/09 04:34:17;;;;;;;13.30;10.98;;;18.20;83.30;;;;;;5072498;28;20041;-83
2021/07/09 04:36:43;;;;;;;16.80;11.98;;;18.30;83.00;;;;;;5072677;28;20470;-82
2021/07/09 04:39:09;;;;;;;17.13;11.65;;;18.30;82.90;;;;;;5071485;28;20036;-82
2021/07/09 04:41:34;;;;;;;16.52;11.38;;;18.30;82.90;;;;;;5072654;28;20029;-83
2021/07/09 04:44:00;;;;;;;21.02;12.57;;;18.30;83.00;;;;;;5075606;28;20033;-82
2021/07/09 04:46:26;;;;;;;16.17;12.60;;;18.40;83.00;;;;;;5076266;28;20385;-82
2021/07/09 04:48:51;;;;;;;13.55;11.88;;;18.40;83.10;;;;;;5083490;28;20481;-82
2021/07/09 04:51:17;;;;;;;17.35;11.48;;;18.40;83.10;;;;;;5095106;28;20047;-82
2021/07/09 04:53:42;;;;;;;18.60;13.13;;;18.40;83.20;;;;;;5078163;28;20369;-82
2021/07/09 04:56:08;;;;;;;19.55;12.20;;;18.50;83.10;;;;;;5096153;28;20107;-82
2021/07/09 04:58:34;;;;;;;16.13;11.50;;;18.50;83.80;;;;;;5096296;28;20024;-82
2021/07/09 05:00:59;;;;;;;20.67;12.60;;;18.60;83.00;;;;;;5088225;28;20079;-82
2021/07/09 05:03:25;;;;;;;18.40;13.00;;;18.50;82.80;;;;;;5075116;28;20032;-82
2021/07/09 05:05:50;;;;;;;14.52;12.00;;;18.50;82.40;;;;;;5082671;28;20081;-82
2021/07/09 05:08:16;;;;;;;15.73;12.63;;;18.50;82.40;;;;;;5096218;28;20024;-82
2021/07/09 05:10:42;;;;;;;14.63;11.90;;;18.50;82.40;;;;;;5094995;28;20415;-82
2021/07/09 05:13:08;;;;;;;17.20;12.88;;;18.50;82.60;;;;;;5094764;28;20028;-82
2021/07/09 05:15:34;;;;;;;15.35;12.50;;;18.50;83.00;;;;;;5077811;28;20131;-83
2021/07/09 05:18:00;;;;;;;17.75;13.35;;;18.60;82.70;;;;;;5099871;28;20048;-81
2021/07/09 05:20:27;;;;;;;16.92;11.65;;;18.60;83.30;;;;;;5083239;28;20061;-82
2021/07/09 05:22:52;;;;;;;17.45;12.48;;;18.60;82.80;;;;;;5075675;28;20029;-83
2021/07/09 05:25:18;;;;;;;16.38;11.82;;;18.60;83.00;;;;;;5074427;28;20393;-82
2021/07/09 05:27:44;;;;;;;18.42;12.98;;;18.60;82.80;;;;;;5074415;28;20036;-83
2021/07/09 05:30:10;;;;;;;16.23;11.77;;;18.60;82.30;;;;;;5074269;28;20056;-82
2021/07/09 05:32:38;;;;;;;18.23;11.48;;;18.60;82.00;;;;;;5075406;28;20020;-83
2021/07/09 05:35:06;;;;;;;18.00;11.73;;;18.60;81.60;;;;;;5075430;28;20021;-83
2021/07/09 05:37:32;;;;;;;17.30;11.50;;;18.60;81.20;;;;;;5074130;28;20074;-83
2021/07/09 05:39:58;;;;;;;16.10;11.93;;;18.70;81.10;;;;;;5073889;28;20036;-82
2021/07/09 05:42:24;;;;;;;16.23;11.73;;;18.70;81.10;;;;;;5074013;28;20469;-82
2021/07/09 05:44:50;;;;;;;16.23;11.30;;;18.70;81.20;;;;;;5074088;28;20074;-82
2021/07/09 05:47:15;;;;;;;17.95;12.35;;;18.70;80.70;;;;;;5074066;28;20047;-82
2021/07/09 05:49:41;;;;;;;14.98;10.60;;;18.70;80.30;;;;;;5075145;28;20039;-82
2021/07/09 05:52:08;;;;;;;17.38;12.45;;;18.70;80.50;;;;;;5075540;28;20040;-83
2021/07/09 05:54:34;;;;;;;16.50;12.13;;;18.70;81.20;;;;;;5087243;28;20032;-82
2021/07/09 05:56:59;;;;;;;16.27;12.52;;;18.70;80.40;;;;;;5095251;28;20098;-82
2021/07/09 05:59:25;;;;;;;15.13;11.50;;;18.70;80.30;;;;;;5084871;28;20377;-82
2021/07/09 06:01:51;;;;;;;13.45;10.88;;;18.70;80.10;;;;;;5093938;28;20499;-82
2021/07/09 06:04:17;;;;;;;14.70;11.57;;;18.80;79.60;;;;;;5093781;28;20024;-82
2021/07/09 06:06:43;;;;;;;13.15;10.60;;;18.90;79.20;;;;;;5093957;28;20110;-82
2021/07/09 06:09:09;;;;;;;14.93;10.85;;;18.90;78.60;;;;;;5091388;28;20028;-82
2021/07/09 06:11:35;;;;;;;17.05;11.13;;;19.00;78.60;;;;;;5072718;28;20090;-82
2021/07/09 06:14:02;;;;;;;13.57;11.07;;;19.00;78.90;;;;;;5078826;28;20037;-82
2021/07/09 06:16:27;;;;;;;14.40;9.93;;;19.10;78.40;;;;;;5081584;28;20044;-82
2021/07/09 06:18:53;;;;;;;13.40;9.95;;;19.10;78.20;;;;;;5074614;28;20039;-82
2021/07/09 06:21:19;;;;;;;11.80;10.18;;;19.10;77.90;;;;;;5074230;28;20033;-82
2021/07/09 06:23:45;;;;;;;12.48;10.30;;;19.10;77.90;;;;;;5073245;28;20080;-82
2021/07/09 06:26:10;;;;;;;13.20;9.52;;;19.10;77.10;;;;;;5074217;28;20448;-82
2021/07/09 06:28:36;;;;;;;11.57;9.20;;;19.20;77.00;;;;;;5073770;28;20116;-82
2021/07/09 06:31:03;;;;;;;13.18;10.35;;;19.30;76.90;;;;;;5074305;28;20036;-83
2021/07/09 06:33:28;;;;;;;15.00;10.55;;;19.30;77.20;;;;;;5074087;28;20052;-82
2021/07/09 06:35:54;;;;;;;14.02;10.30;;;19.50;76.30;;;;;;5072992;28;20075;-82
2021/07/09 06:38:20;;;;;;;17.08;10.40;;;19.60;76.00;;;;;;5056194;28;20037;-82
2021/07/09 06:40:46;;;;;;;13.25;9.65;;;19.70;75.70;;;;;;5087807;28;20032;-82
2021/07/09 06:43:12;;;;;;;13.82;9.30;;;19.80;75.00;;;;;;5073870;28;20032;-82
2021/07/09 06:45:39;;;;;;;15.55;11.02;;;20.00;75.40;;;;;;5055824;28;20498;-82
2021/07/09 06:48:05;;;;;;;14.95;10.80;;;20.20;74.40;;;;;;5055879;28;20024;-82
2021/07/09 06:50:32;;;;;;;13.32;9.77;;;20.30;73.20;;;;;;5073853;28;20035;-82
2021/07/09 06:52:57;;;;;;;15.50;9.50;;;20.40;72.90;;;;;;5082777;28;20032;-83
2021/07/09 06:55:23;;;;;;;14.48;10.27;;;20.50;72.80;;;;;;5085236;28;20024;-83
2021/07/09 06:57:49;;;;;;;12.25;9.80;;;20.40;72.80;;;;;;5092728;28;20020;-82
2021/07/09 07:00:17;;;;;;;13.02;9.82;;;20.40;73.10;;;;;;5073387;28;20025;-83
2021/07/09 07:02:43;;;;;;;15.35;9.93;;;20.40;73.70;;;;;;5073124;28;20037;-82
2021/07/09 07:05:09;;;;;;;13.10;9.50;;;20.50;73.90;;;;;;5072985;28;20125;-82
2021/07/09 07:07:35;;;;;;;11.07;8.13;;;20.60;73.70;;;;;;5072251;28;20032;-82
2021/07/09 07:10:01;;;;;;;13.20;8.50;;;20.70;73.20;;;;;;5059263;28;20025;-82
2021/07/09 07:12:27;;;;;;;10.85;8.55;;;20.90;72.50;;;;;;5088325;28;20498;-83
2021/07/09 07:14:53;;;;;;;13.38;8.35;;;21.00;71.90;;;;;;5093384;28;20048;-82
2021/07/09 07:17:20;;;;;;;13.07;7.85;;;21.00;71.40;;;;;;5081830;28;20031;-83
2021/07/09 07:19:46;;;;;;;11.05;7.60;;;21.10;71.20;;;;;;5072316;28;20104;-83
2021/07/09 07:22:12;;;;;;;10.02;7.72;;;21.20;70.90;;;;;;5073388;28;20028;-83
2021/07/09 07:24:37;;;;;;;9.07;7.97;;;21.30;70.50;;;;;;5073261;28;20375;-83
2021/07/09 07:27:04;;;;;;;10.07;8.10;;;21.50;69.90;;;;;;5073553;28;20035;-83
2021/07/09 07:29:29;;;;;;;8.73;7.82;;;21.60;69.10;;;;;;5073624;28;20508;-83
2021/07/09 07:31:55;;;;;;;10.18;7.88;;;21.70;68.80;;;;;;5079328;28;20089;-83
2021/07/09 07:34:21;;;;;;;9.10;6.85;;;21.80;68.50;;;;;;5055390;28;20032;-83
2021/07/09 07:36:47;;;;;;;9.15;7.03;;;21.80;67.90;;;;;;5072392;28;20465;-83
2021/07/09 07:39:13;;;;;;;10.25;6.93;;;22.00;67.00;;;;;;5071816;28;20032;-83
2021/07/09 07:41:39;;;;;;;8.00;6.13;;;22.00;66.80;;;;;;5073218;28;20651;-83
2021/07/09 07:44:05;;;;;;;11.07;8.02;;;22.10;66.20;;;;;;5084059;28;20043;-83
2021/07/09 07:46:31;;;;;;;10.13;7.38;;;22.20;65.30;;;;;;5076009;28;20509;-83
2021/07/09 07:48:57;;;;;;;10.63;7.35;;;22.20;65.80;;;;;;5071269;28;20067;-82
2021/07/09 07:51:24;;;;;;;11.23;9.00;;;22.40;65.70;;;;;;5072095;28;20036;-83
2021/07/09 07:53:50;;;;;;;11.45;8.57;;;22.40;65.70;;;;;;5075627;28;20028;-87
2021/07/09 07:56:17;;;;;;;8.30;6.55;;;22.40;65.90;;;;;;5075517;28;20055;-88
2021/07/09 07:58:43;;;;;;;9.40;5.30;;;22.50;66.40;;;;;;5083499;28;20053;-87
2021/07/09 08:01:09;;;;;;;9.30;4.90;;;22.60;65.80;;;;;;5072931;28;20505;-86
2021/07/09 08:03:35;;;;;;;7.68;5.22;;;22.70;65.50;;;;;;5090158;28;20081;-86
2021/07/09 08:06:02;;;;;;;9.00;6.25;;;22.80;64.50;;;;;;5091991;28;20116;-87
2021/07/09 08:08:28;;;;;;;11.95;7.78;;;22.90;64.40;;;;;;5092060;28;20439;-85
2021/07/09 08:10:54;;;;;;;10.68;7.28;;;22.90;64.00;;;;;;5092057;28;20024;-82
2021/07/09 08:13:19;;;;;;;10.85;7.60;;;23.00;63.90;;;;;;5093125;28;20032;-82
2021/07/09 08:15:45;;;;;;;8.68;6.97;;;23.10;64.00;;;;;;5079640;28;20048;-82
2021/07/09 08:18:10;;;;;;;10.57;7.30;;;23.20;63.70;;;;;;5095077;28;20028;-81
2021/07/09 08:20:38;;;;;;;9.77;6.65;;;23.30;63.70;;;;;;5079093;28;20028;-82
2021/07/09 08:23:03;;;;;;;7.28;6.35;;;23.30;64.40;;;;;;5085303;28;20020;-82
2021/07/09 08:25:29;;;;;;;7.20;5.95;;;23.30;63.80;;;;;;5075461;28;20036;-81
2021/07/09 08:27:55;;;;;;;11.55;6.50;;;23.30;63.20;;;;;;5075535;28;20033;-81
2021/07/09 08:30:20;;;;;;;7.70;5.32;;;23.20;62.60;;;;;;5058381;28;20028;-82
2021/07/09 08:32:46;;;;;;;5.88;4.65;;;23.10;63.70;;;;;;5076598;28;20058;-82
2021/07/09 08:35:12;;;;;;;6.70;5.47;;;23.00;64.30;;;;;;5058612;28;20029;-83
2021/07/09 08:37:38;;;;;;;9.20;5.32;;;23.00;64.90;;;;;;5091097;28;20109;-81
2021/07/09 08:40:05;;;;;;;6.95;4.82;;;22.90;64.70;;;;;;5095466;28;20024;-83
2021/07/09 08:42:31;;;;;;;5.50;3.95;;;22.80;64.00;;;;;;5093471;28;20059;-82
2021/07/09 08:44:57;;;;;;;6.80;4.03;;;22.90;64.10;;;;;;5095445;28;20051;-82
2021/07/09 08:47:28;;;;;;;4.85;3.75;;;23.10;63.20;;;;;;5096603;28;20028;-82
2021/07/09 08:49:54;;;;;;;4.07;3.28;;;23.30;63.00;;;;;;5094378;28;20384;-83
2021/07/09 08:52:20;;;;;;;4.47;3.42;;;23.60;61.80;;;;;;5076739;28;20051;-83
2021/07/09 08:54:45;;;;;;;6.78;3.20;;;23.80;61.50;;;;;;5074724;28;20504;-83
2021/07/09 08:57:14;;;;;;;4.32;3.22;;;24.00;60.80;;;;;;5074849;28;20492;-83
2021/07/09 08:59:40;;;;;;;3.15;2.83;;;24.10;60.20;;;;;;5074760;28;20067;-83
2021/07/09 09:02:06;;;;;;;4.68;3.08;;;24.20;59.90;;;;;;5075910;28;20024;-83
2021/07/09 09:04:37;;;;;;;4.57;3.20;;;24.40;59.60;;;;;;5075879;28;20028;-83
2021/07/09 09:07:04;;;;;;;6.25;3.20;;;24.50;59.30;;;;;;5076101;28;20020;-83
2021/07/09 09:09:32;;;;;;;4.63;2.92;;;24.60;59.30;;;;;;5075954;28;20035;-83
2021/07/09 09:12:18;;;;;;;3.78;3.10;;;24.60;59.40;;;;;;5074640;28;20033;-83
2021/07/09 09:14:49;;;;;;;3.13;2.67;;;24.80;58.70;;;;;;5075348;28;20037;-83
2021/07/09 09:17:36;;;;;;;6.15;3.40;;;24.80;58.10;;;;;;5076176;28;20035;-83
2021/07/09 09:20:11;;;;;;;5.97;3.23;;;24.90;57.60;;;;;;5074435;28;20032;-83
2021/07/09 09:22:49;;;;;;;4.45;2.70;;;24.90;58.30;;;;;;5075881;28;20270;-83
2021/07/09 09:25:29;;;;;;;6.97;3.33;;;24.70;58.40;;;;;;5074418;28;20377;-83
2021/07/09 09:27:58;;;;;;;3.58;3.03;;;24.50;58.70;;;;;;5075678;28;20428;-83
2021/07/09 09:30:24;;;;;;;5.88;4.20;;;24.50;58.80;;;;;;5073198;28;20025;-83
2021/07/09 09:32:51;;;;;;;6.22;4.45;;;24.60;59.30;;;;;;5075388;28;20036;-83
2021/07/09 09:35:25;;;;;;;5.22;4.60;;;24.60;59.50;;;;;;5075435;28;20070;-82
2021/07/09 09:37:56;;;;;;;6.13;4.38;;;24.60;59.30;;;;;;5074047;28;20017;-83
2021/07/09 09:40:25;;;;;;;6.68;4.15;;;24.70;60.00;;;;;;5074148;28;20032;-84
2021/07/09 09:42:51;;;;;;;5.20;4.32;;;24.90;59.60;;;;;;5074136;28;20020;-85
2021/07/09 09:45:24;;;;;;;8.52;5.10;;;25.00;58.80;;;;;;5075379;28;20516;-85
2021/07/09 09:47:50;;;;;;;7.25;4.35;;;25.10;58.00;;;;;;5075333;28;20024;-84
2021/07/09 09:50:20;;;;;;;7.35;4.47;;;25.20;57.70;;;;;;5075071;28;20381;-83
2021/07/09 09:52:51;;;;;;;5.65;4.13;;;25.30;57.40;;;;;;5084327;28;20036;-84
2021/07/09 09:55:23;;;;;;;8.85;4.85;;;25.50;58.10;;;;;;5075135;28;20116;-85
2021/07/09 09:58:15;;;;;;;6.93;5.57;;;25.70;57.60;;;;;;5073621;28;20029;-83
2021/07/09 10:00:44;;;;;;;7.00;4.47;;;25.90;56.50;;;;;;5074880;28;20068;-83
2021/07/09 10:03:10;;;;;;;6.90;5.75;;;26.10;56.30;;;;;;5073659;28;20139;-81
2021/07/09 10:05:47;;;;;;;10.70;6.70;;;26.30;56.40;;;;;;5073551;28;20111;-83
2021/07/09 10:08:15;;;;;;;7.10;5.80;;;26.20;55.50;;;;;;5073487;28;20039;-79
2021/07/09 10:10:43;;;;;;;9.93;6.00;;;25.90;56.50;;;;;;5078697;28;20122;-82
2021/07/09 10:13:13;;;;;;;8.65;6.88;;;25.70;57.30;;;;;;5093625;28;20051;-83
2021/07/09 10:15:43;;;;;;;9.15;6.55;;;25.80;57.60;;;;;;5080364;28;20044;-82
2021/07/09 10:18:14;;;;;;;8.85;6.72;;;25.90;57.70;;;;;;5072482;28;20027;-82
2021/07/09 10:20:45;;;;;;;9.48;5.85;;;26.00;56.80;;;;;;5077180;28;20055;-82
2021/07/09 10:23:15;;;;;;;6.88;5.57;;;25.90;57.30;;;;;;5077383;28;20028;-81
2021/07/09 10:25:44;;;;;;;9.18;6.35;;;25.80;57.40;;;;;;5073430;28;20037;-81
2021/07/09 10:28:10;;;;;;;9.15;6.38;;;25.60;57.70;;;;;;5072266;28;20024;-81
2021/07/09 10:30:41;;;;;;;8.27;6.53;;;25.30;58.20;;;;;;5080209;28;20551;-81
2021/07/09 10:33:32;;;;;;;11.23;6.10;;;25.20;58.60;;;;;;5084979;28;20075;-81
2021/07/09 10:36:04;;;;;;;11.02;7.00;;;24.90;59.50;;;;;;5078996;28;20028;-81
2021/07/09 10:38:38;;;;;;;12.35;7.25;;;24.60;61.40;;;;;;5094382;28;20346;-81
2021/07/09 10:41:12;;;;;;;11.02;8.63;;;24.30;62.70;;;;;;5094399;28;20469;-80
2021/07/09 10:43:37;;;;;;;11.30;8.63;;;24.10;63.60;;;;;;5092198;28;20103;-90
2021/07/09 10:46:09;;;;;;;16.17;10.82;;;24.00;64.40;;;;;;5072847;28;20450;-78
2021/07/09 10:48:38;;;;;;;14.02;9.60;;;23.80;65.50;;;;;;5074378;28;20036;-82
2021/07/09 10:51:04;;;;;;;12.93;9.90;;;23.70;65.50;;;;;;5074051;28;20047;-79
2021/07/09 10:53:33;;;;;;;11.43;9.25;;;23.50;65.90;;;;;;5074189;28;20098;-78
2021/07/09 10:56:00;;;;;;;11.85;9.90;;;23.50;66.20;;;;;;5075011;28;20078;-80
2021/07/09 10:58:57;;;;;;;14.27;10.50;;;23.50;66.60;;;;;;5089162;28;20480;-81
2021/07/09 11:01:31;;;;;;;12.82;10.75;;;23.40;67.00;;;;;;5092819;28;20020;-81
2021/07/09 11:04:06;;;;;;;12.77;10.30;;;23.40;67.60;;;;;;5090302;28;20028;-81
2021/07/09 11:06:31;;;;;;;17.92;12.02;;;23.40;68.10;;;;;;5072542;28;20433;-79
2021/07/09 11:09:02;;;;;;;16.77;12.40;;;23.40;68.20;;;;;;5073648;28;20081;-81
2021/07/09 11:11:33;;;;;;;17.35;12.48;;;23.30;68.40;;;;;;5075270;28;20122;-80
2021/07/09 11:14:01;;;;;;;20.30;14.23;;;23.30;68.20;;;;;;5094062;28;20089;-78
2021/07/09 11:16:45;;;;;;;13.48;11.80;;;23.40;67.60;;;;;;5093743;28;20097;-80
2021/07/09 11:19:15;;;;;;;18.08;13.18;;;23.50;67.10;;;;;;5078602;28;20031;-81
2021/07/09 11:21:41;;;;;;;18.33;13.30;;;23.50;67.20;;;;;;5093681;28;20109;-81
2021/07/09 11:24:08;;;;;;;15.48;12.95;;;23.60;67.20;;;;;;5093713;28;20044;-81
2021/07/09 11:26:40;;;;;;;15.23;13.13;;;23.60;67.40;;;;;;5090641;28;20024;-81
2021/07/09 11:29:32;;;;;;;17.83;13.70;;;23.70;67.00;;;;;;5072310;28;20028;-81
2021/07/09 11:32:06;;;;;;;16.52;13.95;;;23.80;66.50;;;;;;5073442;28;20021;-81
2021/07/09 11:34:39;;;;;;;23.65;14.50;;;23.90;65.90;;;;;;5072121;28;20025;-81
2021/07/09 11:37:07;;;;;;;21.52;15.95;;;23.90;65.80;;;;;;5073467;28;20532;-81
2021/07/09 11:39:35;;;;;;;24.98;17.38;;;24.00;66.00;;;;;;5072190;28;20033;-80
2021/07/09 11:42:08;;;;;;;24.13;15.57;;;24.10;65.70;;;;;;5073470;28;20500;-80
2021/07/09 11:44:50;;;;;;;23.70;15.95;;;24.10;65.30;;;;;;5071984;28;20646;-81
2021/07/09 11:47:21;;;;;;;19.35;14.77;;;24.10;64.30;;;;;;5071993;28;20024;-80
2021/07/09 11:49:48;;;;;;;17.48;13.27;;;24.10;64.20;;;;;;5073230;28;20032;-80
2021/07/09 11:52:22;;;;;;;15.68;13.13;;;24.20;64.00;;;;;;5073328;28;20401;-81
2021/07/09 11:54:48;;;;;;;15.40;12.65;;;24.30;64.60;;;;;;5076042;28;20048;-81
2021/07/09 11:57:23;;;;;;;18.90;14.75;;;24.60;64.20;;;;;;5075936;28;20021;-80
2021/07/09 11:59:51;;;;;;;16.02;12.15;;;25.00;63.20;;;;;;5087262;28;20024;-80
2021/07/09 12:02:29;;;;;;;16.65;12.18;;;25.20;61.70;;;;;;5097505;28;20372;-81
2021/07/09 12:05:08;;;;;;;12.48;11.05;;;25.50;60.00;;;;;;5095955;28;20485;-81
2021/07/09 12:07:35;;;;;;;13.82;10.85;;;25.70;59.20;;;;;;5080726;28;20497;-81
2021/07/09 12:10:07;;;;;;;11.43;9.85;;;25.80;59.70;;;;;;5077332;28;20029;-81
2021/07/09 12:12:53;;;;;;;15.25;11.18;;;25.60;59.60;;;;;;5075713;28;20035;-81
2021/07/09 12:15:36;;;;;;;12.05;10.85;;;25.40;60.20;;;;;;5056698;28;20041;-81
2021/07/09 12:18:10;;;;;;;11.57;10.38;;;25.30;60.30;;;;;;5090182;28;20384;-81
2021/07/09 12:20:44;;;;;;;14.98;10.90;;;25.20;60.70;;;;;;5082795;28;20029;-81
2021/07/09 12:23:12;;;;;;;11.07;9.45;;;25.20;60.20;;;;;;5084348;28;20035;-81
2021/07/09 12:25:43;;;;;;;13.77;9.80;;;25.10;60.70;;;;;;5075907;28;20024;-81
2021/07/09 12:28:14;;;;;;;11.88;9.55;;;25.10;60.90;;;;;;5075052;28;20078;-82
2021/07/09 12:30:45;;;;;;;11.10;9.10;;;25.10;61.30;;;;;;5075541;28;20024;-81
2021/07/09 12:33:25;;;;;;;11.10;9.25;;;25.00;60.00;;;;;;5074841;28;20500;-81
2021/07/09 12:36:20;;;;;;;11.75;8.88;;;24.90;60.00;;;;;;5074656;28;20473;-81